sensor_id;sensor_type;location;lat;lon;timestamp;P1;durP1;ratioP1;P2;durP2;ratioP2
39778;SDS011;25454;49.878;8.618;2022-09-09T00:23:25;6.97;;;1.20;;
39778;SDS011;25454;49.878;8.618;2022-09-09T00:28:28;3.63;;;1.40;;
39778;SDS011;25454;49.878;8.618;2022-09-09T00:33:32;4.10;;;1.10;;
39778;SDS011;25454;49.878;8.618;2022-09-09T00:38:33;4.60;;;1.30;;
39778;SDS011;25454;49.878;8.618;2022-09-09T00:43:38;2.60;;;1.00;;
39778;SDS011;25454;49.878;8.618;2022-09-09T00:49:03;3.70;;;1.07;;
39778;SDS011;25454;49.878;8.618;2022-09-09T00:59:48;5.20;;;1.27;;
39778;SDS011;25454;49.878;8.618;2022-09-09T01:04:51;3.63;;;1.30;;
39778;SDS011;25454;49.878;8.618;2022-09-09T01:09:52;8.77;;;1.40;;
39778;SDS011;25454;49.878;8.618;2022-09-09T01:15:00;2.30;;;1.17;;
39778;SDS011;25454;49.878;8.618;2022-09-09T01:31:11;2.23;;;1.10;;
39778;SDS011;25454;49.878;8.618;2022-09-09T01:36:28;3.60;;;1.27;;
39778;SDS011;25454;49.878;8.618;2022-09-09T01:41:35;5.00;;;1.70;;
39778;SDS011;25454;49.878;8.618;2022-09-09T01:46:36;5.40;;;1.47;;
39778;SDS011;25454;49.878;8.618;2022-09-09T01:51:36;5.30;;;1.33;;
39778;SDS011;25454;49.878;8.618;2022-09-09T02:02:18;5.87;;;1.40;;
39778;SDS011;25454;49.878;8.618;2022-09-09T02:07:40;3.73;;;1.53;;
39778;SDS011;25454;49.878;8.618;2022-09-09T02:18:11;6.27;;;1.63;;
39778;SDS011;25454;49.878;8.618;2022-09-09T02:23:14;4.50;;;1.83;;
39778;SDS011;25454;49.878;8.618;2022-09-09T02:28:15;3.57;;;1.57;;
39778;SDS011;25454;49.878;8.618;2022-09-09T02:33:18;8.03;;;1.60;;
39778;SDS011;25454;49.878;8.618;2022-09-09T02:38:19;7.07;;;1.50;;
39778;SDS011;25454;49.878;8.618;2022-09-09T02:43:25;4.27;;;1.67;;
39778;SDS011;25454;49.878;8.618;2022-09-09T02:54:03;5.97;;;1.57;;
39778;SDS011;25454;49.878;8.618;2022-09-09T02:59:24;4.37;;;1.40;;
39778;SDS011;25454;49.878;8.618;2022-09-09T03:04:26;5.10;;;1.43;;
39778;SDS011;25454;49.878;8.618;2022-09-09T03:09:26;2.80;;;1.40;;
39778;SDS011;25454;49.878;8.618;2022-09-09T03:14:27;5.20;;;1.53;;
39778;SDS011;25454;49.878;8.618;2022-09-09T03:19:27;5.27;;;1.67;;
39778;SDS011;25454;49.878;8.618;2022-09-09T03:24:29;3.83;;;1.43;;
39778;SDS011;25454;49.878;8.618;2022-09-09T03:29:30;7.60;;;1.73;;
39778;SDS011;25454;49.878;8.618;2022-09-09T03:34:34;4.37;;;1.40;;
39778;SDS011;25454;49.878;8.618;2022-09-09T03:39:34;4.30;;;1.53;;
39778;SDS011;25454;49.878;8.618;2022-09-09T03:44:35;5.73;;;1.83;;
39778;SDS011;25454;49.878;8.618;2022-09-09T03:49:36;3.13;;;1.87;;
39778;SDS011;25454;49.878;8.618;2022-09-09T03:54:36;3.40;;;1.60;;
39778;SDS011;25454;49.878;8.618;2022-09-09T03:59:42;4.97;;;1.60;;
39778;SDS011;25454;49.878;8.618;2022-09-09T04:04:43;3.87;;;1.50;;
39778;SDS011;25454;49.878;8.618;2022-09-09T04:09:44;6.20;;;1.37;;
39778;SDS011;25454;49.878;8.618;2022-09-09T04:14:44;4.87;;;2.00;;
39778;SDS011;25454;49.878;8.618;2022-09-09T04:19:45;5.80;;;1.27;;
39778;SDS011;25454;49.878;8.618;2022-09-09T04:24:46;3.77;;;1.20;;
39778;SDS011;25454;49.878;8.618;2022-09-09T04:29:47;4.00;;;1.43;;
39778;SDS011;25454;49.878;8.618;2022-09-09T04:34:47;3.50;;;1.50;;
39778;SDS011;25454;49.878;8.618;2022-09-09T04:39:48;6.47;;;1.60;;
39778;SDS011;25454;49.878;8.618;2022-09-09T04:44:48;5.13;;;1.33;;
39778;SDS011;25454;49.878;8.618;2022-09-09T04:49:49;4.50;;;1.53;;
39778;SDS011;25454;49.878;8.618;2022-09-09T04:54:49;4.23;;;1.53;;
39778;SDS011;25454;49.878;8.618;2022-09-09T04:59:50;5.37;;;1.50;;
39778;SDS011;25454;49.878;8.618;2022-09-09T05:04:50;4.93;;;1.50;;
39778;SDS011;25454;49.878;8.618;2022-09-09T05:09:51;4.33;;;1.30;;
39778;SDS011;25454;49.878;8.618;2022-09-09T05:14:52;4.90;;;1.60;;
39778;SDS011;25454;49.878;8.618;2022-09-09T05:19:52;5.43;;;1.87;;
39778;SDS011;25454;49.878;8.618;2022-09-09T05:24:53;4.10;;;1.30;;
39778;SDS011;25454;49.878;8.618;2022-09-09T05:29:54;4.77;;;1.57;;
39778;SDS011;25454;49.878;8.618;2022-09-09T05:34:54;5.23;;;1.50;;
39778;SDS011;25454;49.878;8.618;2022-09-09T05:39:55;3.67;;;1.57;;
39778;SDS011;25454;49.878;8.618;2022-09-09T05:44:56;3.57;;;1.43;;
39778;SDS011;25454;49.878;8.618;2022-09-09T05:49:58;7.37;;;2.10;;
39778;SDS011;25454;49.878;8.618;2022-09-09T05:54:58;8.70;;;2.50;;
39778;SDS011;25454;49.878;8.618;2022-09-09T05:59:59;4.00;;;1.57;;
39778;SDS011;25454;49.878;8.618;2022-09-09T06:05:01;3.43;;;1.47;;
39778;SDS011;25454;49.878;8.618;2022-09-09T06:10:01;3.33;;;1.20;;
39778;SDS011;25454;49.878;8.618;2022-09-09T06:15:02;3.00;;;1.10;;
39778;SDS011;25454;49.878;8.618;2022-09-09T06:20:07;4.47;;;1.10;;
39778;SDS011;25454;49.878;8.618;2022-09-09T06:25:09;5.10;;;1.30;;
39778;SDS011;25454;49.878;8.618;2022-09-09T06:30:09;3.40;;;1.20;;
39778;SDS011;25454;49.878;8.618;2022-09-09T06:35:11;6.40;;;1.10;;
39778;SDS011;25454;49.878;8.618;2022-09-09T06:40:11;10.13;;;1.33;;
39778;SDS011;25454;49.878;8.618;2022-09-09T06:45:12;4.47;;;1.20;;
39778;SDS011;25454;49.878;8.618;2022-09-09T06:50:13;2.17;;;1.20;;
39778;SDS011;25454;49.878;8.618;2022-09-09T06:55:14;5.87;;;1.27;;
39778;SDS011;25454;49.878;8.618;2022-09-09T07:00:16;4.03;;;1.20;;
39778;SDS011;25454;49.878;8.618;2022-09-09T07:05:16;5.73;;;1.57;;
39778;SDS011;25454;49.878;8.618;2022-09-09T07:10:17;4.07;;;1.43;;
39778;SDS011;25454;49.878;8.618;2022-09-09T07:15:18;5.73;;;1.60;;
39778;SDS011;25454;49.878;8.618;2022-09-09T07:20:19;5.33;;;1.20;;
39778;SDS011;25454;49.878;8.618;2022-09-09T07:25:20;3.57;;;1.30;;
39778;SDS011;25454;49.878;8.618;2022-09-09T07:30:21;4.50;;;1.30;;
39778;SDS011;25454;49.878;8.618;2022-09-09T07:35:22;3.03;;;0.90;;
39778;SDS011;25454;49.878;8.618;2022-09-09T07:40:26;6.07;;;1.30;;
39778;SDS011;25454;49.878;8.618;2022-09-09T07:45:27;6.20;;;1.73;;
39778;SDS011;25454;49.878;8.618;2022-09-09T07:50:31;2.97;;;1.20;;
39778;SDS011;25454;49.878;8.618;2022-09-09T07:55:31;5.63;;;1.53;;
39778;SDS011;25454;49.878;8.618;2022-09-09T08:00:38;5.77;;;1.23;;
39778;SDS011;25454;49.878;8.618;2022-09-09T08:05:43;3.67;;;1.47;;
39778;SDS011;25454;49.878;8.618;2022-09-09T08:10:46;7.53;;;1.70;;
39778;SDS011;25454;49.878;8.618;2022-09-09T08:15:47;4.37;;;1.40;;
39778;SDS011;25454;49.878;8.618;2022-09-09T08:20:50;4.67;;;1.57;;
39778;SDS011;25454;49.878;8.618;2022-09-09T08:26:09;5.83;;;1.50;;
39778;SDS011;25454;49.878;8.618;2022-09-09T08:31:15;5.93;;;1.63;;
39778;SDS011;25454;49.878;8.618;2022-09-09T08:36:19;6.17;;;1.60;;
39778;SDS011;25454;49.878;8.618;2022-09-09T08:52:14;4.10;;;1.30;;
39778;SDS011;25454;49.878;8.618;2022-09-09T08:57:22;4.67;;;1.43;;
39778;SDS011;25454;49.878;8.618;2022-09-09T09:12:52;12.50;;;2.90;;
39778;SDS011;25454;49.878;8.618;2022-09-09T09:17:54;11.63;;;3.40;;
39778;SDS011;25454;49.878;8.618;2022-09-09T09:22:55;9.37;;;2.87;;
39778;SDS011;25454;49.878;8.618;2022-09-09T09:33:33;8.77;;;2.30;;
39778;SDS011;25454;49.878;8.618;2022-09-09T09:38:35;6.83;;;1.70;;
39778;SDS011;25454;49.878;8.618;2022-09-09T09:43:37;5.63;;;1.73;;
39778;SDS011;25454;49.878;8.618;2022-09-09T09:48:40;3.50;;;1.73;;
39778;SDS011;25454;49.878;8.618;2022-09-09T09:53:41;6.17;;;1.90;;
39778;SDS011;25454;49.878;8.618;2022-09-09T10:03:51;7.67;;;2.00;;
39778;SDS011;25454;49.878;8.618;2022-09-09T10:08:52;3.77;;;1.70;;
39778;SDS011;25454;49.878;8.618;2022-09-09T10:19:01;4.90;;;1.73;;
39778;SDS011;25454;49.878;8.618;2022-09-09T10:39:47;5.23;;;1.50;;
39778;SDS011;25454;49.878;8.618;2022-09-09T10:45:02;6.93;;;2.03;;
39778;SDS011;25454;49.878;8.618;2022-09-09T10:55:41;5.77;;;1.43;;
39778;SDS011;25454;49.878;8.618;2022-09-09T11:00:54;5.07;;;1.50;;
39778;SDS011;25454;49.878;8.618;2022-09-09T11:06:06;6.13;;;1.57;;
39778;SDS011;25454;49.878;8.618;2022-09-09T11:21:45;4.60;;;1.60;;
39778;SDS011;25454;49.878;8.618;2022-09-09T11:26:51;4.60;;;1.40;;
39778;SDS011;25454;49.878;8.618;2022-09-09T11:32:11;5.50;;;1.80;;
39778;SDS011;25454;49.878;8.618;2022-09-09T11:42:47;4.40;;;1.57;;
39778;SDS011;25454;49.878;8.618;2022-09-09T11:47:53;5.50;;;1.83;;
39778;SDS011;25454;49.878;8.618;2022-09-09T11:58:17;6.07;;;1.80;;
39778;SDS011;25454;49.878;8.618;2022-09-09T12:08:40;5.23;;;1.43;;
39778;SDS011;25454;49.878;8.618;2022-09-09T12:13:51;6.10;;;1.67;;
39778;SDS011;25454;49.878;8.618;2022-09-09T12:19:02;5.13;;;1.40;;
39778;SDS011;25454;49.878;8.618;2022-09-09T12:24:19;5.33;;;1.27;;
39778;SDS011;25454;49.878;8.618;2022-09-09T12:29:51;6.47;;;1.80;;
39778;SDS011;25454;49.878;8.618;2022-09-09T12:35:03;4.50;;;1.30;;
39778;SDS011;25454;49.878;8.618;2022-09-09T12:40:20;7.90;;;1.73;;
39778;SDS011;25454;49.878;8.618;2022-09-09T12:45:24;4.27;;;1.20;;
39778;SDS011;25454;49.878;8.618;2022-09-09T12:50:30;3.13;;;0.73;;
39778;SDS011;25454;49.878;8.618;2022-09-09T12:55:35;2.83;;;0.97;;
39778;SDS011;25454;49.878;8.618;2022-09-09T13:00:38;3.83;;;1.17;;
39778;SDS011;25454;49.878;8.618;2022-09-09T13:06:10;4.20;;;2.10;;
39778;SDS011;25454;49.878;8.618;2022-09-09T13:11:13;6.60;;;1.00;;
39778;SDS011;25454;49.878;8.618;2022-09-09T13:16:28;2.87;;;0.90;;
39778;SDS011;25454;49.878;8.618;2022-09-09T13:21:35;2.97;;;0.80;;
39778;SDS011;25454;49.878;8.618;2022-09-09T13:26:39;3.47;;;0.70;;
39778;SDS011;25454;49.878;8.618;2022-09-09T13:31:40;2.67;;;0.70;;
39778;SDS011;25454;49.878;8.618;2022-09-09T13:36:41;5.33;;;1.10;;
39778;SDS011;25454;49.878;8.618;2022-09-09T13:41:49;5.67;;;0.60;;
39778;SDS011;25454;49.878;8.618;2022-09-09T13:46:59;0.90;;;0.40;;
39778;SDS011;25454;49.878;8.618;2022-09-09T13:52:26;3.73;;;0.70;;
39778;SDS011;25454;49.878;8.618;2022-09-09T13:57:30;1.67;;;0.60;;
39778;SDS011;25454;49.878;8.618;2022-09-09T14:02:31;2.97;;;0.87;;
39778;SDS011;25454;49.878;8.618;2022-09-09T14:07:32;0.90;;;0.50;;
39778;SDS011;25454;49.878;8.618;2022-09-09T14:12:36;1.97;;;0.77;;
39778;SDS011;25454;49.878;8.618;2022-09-09T14:17:36;3.23;;;0.80;;
39778;SDS011;25454;49.878;8.618;2022-09-09T14:22:40;4.23;;;1.00;;
39778;SDS011;25454;49.878;8.618;2022-09-09T14:27:41;3.53;;;0.80;;
39778;SDS011;25454;49.878;8.618;2022-09-09T14:32:42;4.37;;;1.00;;
39778;SDS011;25454;49.878;8.618;2022-09-09T14:37:42;3.93;;;1.30;;
39778;SDS011;25454;49.878;8.618;2022-09-09T14:42:44;2.13;;;0.90;;
39778;SDS011;25454;49.878;8.618;2022-09-09T14:47:45;4.13;;;1.00;;
39778;SDS011;25454;49.878;8.618;2022-09-09T14:52:45;3.60;;;1.20;;
39778;SDS011;25454;49.878;8.618;2022-09-09T14:57:46;4.67;;;0.93;;
39778;SDS011;25454;49.878;8.618;2022-09-09T15:02:47;1.60;;;0.67;;
39778;SDS011;25454;49.878;8.618;2022-09-09T15:07:51;2.67;;;0.70;;
39778;SDS011;25454;49.878;8.618;2022-09-09T15:12:51;3.10;;;1.07;;
39778;SDS011;25454;49.878;8.618;2022-09-09T15:17:52;1.70;;;0.67;;
39778;SDS011;25454;49.878;8.618;2022-09-09T15:22:53;2.87;;;0.83;;
39778;SDS011;25454;49.878;8.618;2022-09-09T15:27:53;3.67;;;0.87;;
39778;SDS011;25454;49.878;8.618;2022-09-09T15:32:55;5.50;;;1.10;;
39778;SDS011;25454;49.878;8.618;2022-09-09T15:37:56;4.47;;;0.90;;
39778;SDS011;25454;49.878;8.618;2022-09-09T15:42:57;3.57;;;1.07;;
39778;SDS011;25454;49.878;8.618;2022-09-09T15:47:58;4.27;;;1.03;;
39778;SDS011;25454;49.878;8.618;2022-09-09T15:53:00;3.50;;;1.40;;
39778;SDS011;25454;49.878;8.618;2022-09-09T15:58:01;2.37;;;1.20;;
39778;SDS011;25454;49.878;8.618;2022-09-09T16:03:01;6.90;;;1.70;;
39778;SDS011;25454;49.878;8.618;2022-09-09T16:08:05;4.27;;;1.13;;
39778;SDS011;25454;49.878;8.618;2022-09-09T16:13:06;3.23;;;1.13;;
39778;SDS011;25454;49.878;8.618;2022-09-09T16:18:06;4.80;;;1.10;;
39778;SDS011;25454;49.878;8.618;2022-09-09T16:23:07;1.47;;;0.87;;
39778;SDS011;25454;49.878;8.618;2022-09-09T16:28:07;1.93;;;0.87;;
39778;SDS011;25454;49.878;8.618;2022-09-09T16:33:08;7.57;;;2.20;;
39778;SDS011;25454;49.878;8.618;2022-09-09T16:38:08;3.27;;;1.23;;
39778;SDS011;25454;49.878;8.618;2022-09-09T16:43:09;3.17;;;1.13;;
39778;SDS011;25454;49.878;8.618;2022-09-09T16:48:12;2.20;;;1.17;;
39778;SDS011;25454;49.878;8.618;2022-09-09T16:53:12;2.73;;;1.03;;
39778;SDS011;25454;49.878;8.618;2022-09-09T16:58:13;2.17;;;0.90;;
39778;SDS011;25454;49.878;8.618;2022-09-09T17:03:14;3.50;;;1.10;;
39778;SDS011;25454;49.878;8.618;2022-09-09T17:08:16;4.40;;;0.93;;
39778;SDS011;25454;49.878;8.618;2022-09-09T17:13:17;6.03;;;1.10;;
39778;SDS011;25454;49.878;8.618;2022-09-09T17:18:20;7.53;;;1.17;;
39778;SDS011;25454;49.878;8.618;2022-09-09T17:23:20;2.40;;;1.00;;
39778;SDS011;25454;49.878;8.618;2022-09-09T17:28:21;5.07;;;1.30;;
39778;SDS011;25454;49.878;8.618;2022-09-09T17:33:26;3.80;;;1.43;;
39778;SDS011;25454;49.878;8.618;2022-09-09T17:38:34;4.10;;;1.47;;
39778;SDS011;25454;49.878;8.618;2022-09-09T17:43:35;2.53;;;1.30;;
39778;SDS011;25454;49.878;8.618;2022-09-09T17:48:37;4.33;;;1.27;;
39778;SDS011;25454;49.878;8.618;2022-09-09T17:53:40;6.77;;;1.40;;
39778;SDS011;25454;49.878;8.618;2022-09-09T17:58:45;3.70;;;1.63;;
39778;SDS011;25454;49.878;8.618;2022-09-09T18:03:49;3.97;;;1.40;;
39778;SDS011;25454;49.878;8.618;2022-09-09T18:08:51;3.90;;;1.07;;
39778;SDS011;25454;49.878;8.618;2022-09-09T18:13:58;4.70;;;1.33;;
39778;SDS011;25454;49.878;8.618;2022-09-09T18:19:01;4.77;;;2.30;;
39778;SDS011;25454;49.878;8.618;2022-09-09T18:24:04;3.63;;;1.43;;
39778;SDS011;25454;49.878;8.618;2022-09-09T18:29:07;3.70;;;1.03;;
39778;SDS011;25454;49.878;8.618;2022-09-09T18:34:11;2.83;;;1.00;;
39778;SDS011;25454;49.878;8.618;2022-09-09T18:39:13;5.10;;;1.30;;
39778;SDS011;25454;49.878;8.618;2022-09-09T18:44:17;1.97;;;0.90;;
39778;SDS011;25454;49.878;8.618;2022-09-09T18:49:20;4.00;;;1.30;;
39778;SDS011;25454;49.878;8.618;2022-09-09T18:54:24;2.57;;;1.20;;
39778;SDS011;25454;49.878;8.618;2022-09-09T18:59:29;2.83;;;1.30;;
39778;SDS011;25454;49.878;8.618;2022-09-09T19:04:30;2.20;;;1.10;;
39778;SDS011;25454;49.878;8.618;2022-09-09T19:09:33;8.30;;;1.07;;
39778;SDS011;25454;49.878;8.618;2022-09-09T19:14:34;4.53;;;1.37;;
39778;SDS011;25454;49.878;8.618;2022-09-09T19:19:34;4.20;;;1.60;;
39778;SDS011;25454;49.878;8.618;2022-09-09T19:24:35;4.03;;;1.60;;
39778;SDS011;25454;49.878;8.618;2022-09-09T19:29:37;3.50;;;1.10;;
39778;SDS011;25454;49.878;8.618;2022-09-09T19:34:42;2.27;;;0.93;;
39778;SDS011;25454;49.878;8.618;2022-09-09T19:39:43;3.07;;;0.97;;
39778;SDS011;25454;49.878;8.618;2022-09-09T19:44:44;2.00;;;0.87;;
39778;SDS011;25454;49.878;8.618;2022-09-09T19:49:45;2.53;;;0.90;;
39778;SDS011;25454;49.878;8.618;2022-09-09T19:54:46;2.53;;;0.77;;
39778;SDS011;25454;49.878;8.618;2022-09-09T19:59:49;3.03;;;1.00;;
39778;SDS011;25454;49.878;8.618;2022-09-09T20:04:50;3.50;;;0.90;;
39778;SDS011;25454;49.878;8.618;2022-09-09T20:09:50;3.90;;;1.10;;
39778;SDS011;25454;49.878;8.618;2022-09-09T20:14:53;3.97;;;1.20;;
39778;SDS011;25454;49.878;8.618;2022-09-09T20:19:54;5.53;;;1.00;;
39778;SDS011;25454;49.878;8.618;2022-09-09T20:24:54;2.90;;;1.03;;
39778;SDS011;25454;49.878;8.618;2022-09-09T20:29:55;6.53;;;1.20;;
39778;SDS011;25454;49.878;8.618;2022-09-09T20:34:55;1.60;;;0.80;;
39778;SDS011;25454;49.878;8.618;2022-09-09T20:39:57;5.40;;;1.27;;
39778;SDS011;25454;49.878;8.618;2022-09-09T20:44:59;4.93;;;1.00;;
39778;SDS011;25454;49.878;8.618;2022-09-09T20:49:59;2.53;;;1.30;;
39778;SDS011;25454;49.878;8.618;2022-09-09T20:55:00;3.67;;;1.50;;
39778;SDS011;25454;49.878;8.618;2022-09-09T21:00:01;4.00;;;1.30;;
39778;SDS011;25454;49.878;8.618;2022-09-09T21:05:03;2.70;;;1.20;;
39778;SDS011;25454;49.878;8.618;2022-09-09T21:10:04;2.13;;;1.10;;
39778;SDS011;25454;49.878;8.618;2022-09-09T21:15:05;2.83;;;1.33;;
39778;SDS011;25454;49.878;8.618;2022-09-09T21:20:10;1.40;;;0.90;;
39778;SDS011;25454;49.878;8.618;2022-09-09T21:25:10;2.23;;;0.83;;
39778;SDS011;25454;49.878;8.618;2022-09-09T21:30:12;2.40;;;1.07;;
39778;SDS011;25454;49.878;8.618;2022-09-09T21:35:13;3.77;;;1.37;;
39778;SDS011;25454;49.878;8.618;2022-09-09T21:40:15;2.77;;;0.97;;
39778;SDS011;25454;49.878;8.618;2022-09-09T21:45:16;2.00;;;1.13;;
39778;SDS011;25454;49.878;8.618;2022-09-09T21:50:18;1.33;;;1.00;;
39778;SDS011;25454;49.878;8.618;2022-09-09T21:55:20;2.90;;;1.30;;
39778;SDS011;25454;49.878;8.618;2022-09-09T22:00:21;3.67;;;1.23;;
39778;SDS011;25454;49.878;8.618;2022-09-09T22:05:23;3.00;;;1.43;;
39778;SDS011;25454;49.878;8.618;2022-09-09T22:10:23;5.30;;;1.50;;
39778;SDS011;25454;49.878;8.618;2022-09-09T22:15:29;2.20;;;1.47;;
39778;SDS011;25454;49.878;8.618;2022-09-09T22:20:32;2.53;;;1.60;;
39778;SDS011;25454;49.878;8.618;2022-09-09T22:25:38;3.70;;;1.47;;
39778;SDS011;25454;49.878;8.618;2022-09-09T22:30:39;3.77;;;1.67;;
39778;SDS011;25454;49.878;8.618;2022-09-09T22:35:40;4.33;;;1.60;;
39778;SDS011;25454;49.878;8.618;2022-09-09T22:40:42;2.57;;;1.47;;
39778;SDS011;25454;49.878;8.618;2022-09-09T22:45:45;2.93;;;1.30;;
39778;SDS011;25454;49.878;8.618;2022-09-09T22:50:46;1.73;;;1.27;;
39778;SDS011;25454;49.878;8.618;2022-09-09T22:55:57;2.00;;;1.10;;
39778;SDS011;25454;49.878;8.618;2022-09-09T23:01:00;2.27;;;1.37;;
39778;SDS011;25454;49.878;8.618;2022-09-09T23:06:09;1.90;;;1.00;;
39778;SDS011;25454;49.878;8.618;2022-09-09T23:11:11;3.00;;;1.40;;
39778;SDS011;25454;49.878;8.618;2022-09-09T23:16:13;3.33;;;1.60;;
39778;SDS011;25454;49.878;8.618;2022-09-09T23:21:15;3.23;;;1.50;;
39778;SDS011;25454;49.878;8.618;2022-09-09T23:26:16;3.67;;;1.33;;
39778;SDS011;25454;49.878;8.618;2022-09-09T23:31:20;2.73;;;1.50;;
39778;SDS011;25454;49.878;8.618;2022-09-09T23:36:24;4.50;;;1.70;;
39778;SDS011;25454;49.878;8.618;2022-09-09T23:41:25;3.00;;;1.60;;
39778;SDS011;25454;49.878;8.618;2022-09-09T23:46:27;3.83;;;1.40;;
39778;SDS011;25454;49.878;8.618;2022-09-09T23:51:29;5.50;;;1.93;;
39778;SDS011;25454;49.878;8.618;2022-09-09T23:56:32;2.30;;;1.37;;
